Time;durP1;ratioP1;P1;durP2;ratioP2;P2;SDS_P1;SDS_P2;PMS_P1;PMS_P2;Temp;Humidity;BMP_temperature;BMP_pressure;BME280_temperature;BME280_humidity;BME280_pressure;Samples;Min_cycle;Max_cycle;Signal;HPM_P1;HPM_P2
2022/09/05 00:02:00;;;;;;;;;;;17.70;70.30;;;;;;5015961;28;20033;-46
2022/09/05 00:04:44;;;;;;;6.00;3.33;;;17.70;70.20;;;;;;5020957;28;19969;-46
2022/09/05 00:07:37;;;;;;;7.63;3.85;;;17.60;70.10;;;;;;5016291;28;20037;-48
2022/09/05 00:10:27;;;;;;;5.85;2.80;;;17.60;69.90;;;;;;5025683;28;20026;-46
2022/09/05 00:12:56;;;;;;;6.20;3.58;;;17.60;69.90;;;;;;5027564;28;20041;-46
2022/09/05 00:16:02;;;;;;;6.18;3.33;;;17.60;70.10;;;;;;5015885;28;20038;-49
2022/09/05 00:19:18;;;;;;;5.57;3.25;;;17.60;70.10;;;;;;5021122;28;20419;-48
2022/09/05 00:22:11;;;;;;;6.88;3.47;;;17.60;69.80;;;;;;5017234;28;20038;-49
2022/09/05 00:25:03;;;;;;;6.35;3.80;;;17.60;69.80;;;;;;5019405;28;20325;-47
2022/09/05 00:28:15;;;;;;;5.28;3.72;;;17.60;69.80;;;;;;5019480;28;20029;-46
2022/09/05 00:30:55;;;;;;;7.03;3.85;;;17.60;69.80;;;;;;5031662;28;20037;-48
2022/09/05 00:33:45;;;;;;;5.13;3.30;;;17.60;69.80;;;;;;5011297;28;20520;-47
2022/09/05 00:36:21;;;;;;;5.68;3.33;;;17.60;69.60;;;;;;5011049;28;20072;-46
2022/09/05 00:39:00;;;;;;;5.05;3.40;;;17.60;69.30;;;;;;5016881;28;20040;-47
2022/09/05 00:41:30;;;;;;;6.72;3.55;;;17.50;69.20;;;;;;5016384;28;20034;-48
2022/09/05 00:44:02;;;;;;;5.60;3.25;;;17.60;69.20;;;;;;5021706;28;20459;-47
2022/09/05 00:46:36;;;;;;;6.30;3.55;;;17.60;68.70;;;;;;5016370;28;20347;-46
2022/09/05 00:49:27;;;;;;;6.28;3.58;;;17.60;68.90;;;;;;5012144;28;20014;-46
2022/09/05 00:52:35;;;;;;;4.45;3.08;;;17.50;69.30;;;;;;5031130;28;20029;-46
2022/09/05 00:55:35;;;;;;;7.40;3.22;;;17.60;69.10;;;;;;5018492;28;20036;-47
2022/09/05 00:58:16;;;;;;;5.03;3.20;;;17.60;69.00;;;;;;5012344;28;20052;-46
2022/09/05 01:00:52;;;;;;;6.95;3.33;;;17.50;69.10;;;;;;5023099;28;20116;-46
2022/09/05 01:03:44;;;;;;;6.30;3.88;;;17.50;69.10;;;;;;5028079;28;20025;-46
2022/09/05 01:06:44;;;;;;;5.57;3.05;;;17.50;69.10;;;;;;5021986;28;20066;-46
2022/09/05 01:09:17;;;;;;;6.63;3.85;;;17.50;69.00;;;;;;5009932;28;20048;-47
2022/09/05 01:11:54;;;;;;;4.60;3.60;;;17.50;68.90;;;;;;5021930;28;20117;-47
2022/09/05 01:14:53;;;;;;;5.78;3.47;;;17.50;68.80;;;;;;5021908;28;20149;-48
2022/09/05 01:17:27;;;;;;;10.45;3.55;;;17.40;68.60;;;;;;5013127;28;20037;-47
2022/09/05 01:20:19;;;;;;;4.38;3.33;;;17.40;68.50;;;;;;5015863;28;20170;-45
2022/09/05 01:23:08;;;;;;;5.47;3.17;;;17.40;68.80;;;;;;5010958;28;20045;-45
2022/09/05 01:26:05;;;;;;;4.95;3.58;;;17.40;69.10;;;;;;5010363;28;20026;-46
2022/09/05 01:28:35;;;;;;;6.22;4.03;;;17.40;69.00;;;;;;5021991;28;20041;-46
2022/09/05 01:31:27;;;;;;;4.35;3.30;;;17.40;69.40;;;;;;5017539;28;20037;-48
2022/09/05 01:34:10;;;;;;;4.78;3.08;;;17.40;69.40;;;;;;5020817;28;20018;-46
2022/09/05 01:37:12;;;;;;;5.47;3.30;;;17.40;69.10;;;;;;5010234;28;20033;-47
2022/09/05 01:40:03;;;;;;;5.85;3.47;;;17.40;68.90;;;;;;5016898;28;20033;-45
2022/09/05 01:42:35;;;;;;;5.65;3.45;;;17.40;68.90;;;;;;5023399;28;20034;-48
2022/09/05 01:45:25;;;;;;;4.28;2.53;;;17.50;69.30;;;;;;5025964;28;20037;-47
2022/09/05 01:48:05;;;;;;;7.35;3.42;;;17.50;69.20;;;;;;5028252;28;20033;-46
2022/09/05 01:50:47;;;;;;;6.10;3.45;;;17.50;69.20;;;;;;5009435;28;20044;-49
2022/09/05 01:53:36;;;;;;;6.90;3.03;;;17.50;69.30;;;;;;5009084;28;20073;-47
2022/09/05 01:56:17;;;;;;;;;;;17.50;69.10;;;;;;5010952;28;20061;-46
2022/09/05 01:59:04;;;;;;;5.47;3.28;;;17.50;69.20;;;;;;5017630;28;20370;-45
2022/09/05 02:01:38;;;;;;;5.20;3.65;;;17.60;69.00;;;;;;5014143;28;20044;-46
2022/09/05 02:04:54;;;;;;;5.22;3.63;;;17.60;68.70;;;;;;5008948;28;20029;-47
2022/09/05 02:07:37;;;;;;;4.32;3.20;;;17.60;68.80;;;;;;5018528;28;20044;-46
2022/09/05 02:10:41;;;;;;;4.80;3.08;;;17.60;69.20;;;;;;5024910;28;20527;-46
2022/09/05 02:13:33;;;;;;;5.75;3.50;;;17.60;68.70;;;;;;5011037;28;20076;-46
2022/09/05 02:16:27;;;;;;;7.05;3.70;;;17.50;68.50;;;;;;5020451;28;20179;-46
2022/09/05 02:19:08;;;;;;;6.00;3.42;;;17.60;68.00;;;;;;5009844;28;20033;-46
2022/09/05 02:21:39;;;;;;;4.47;3.08;;;17.50;68.10;;;;;;5010588;28;20030;-46
2022/09/05 02:24:52;;;;;;;6.65;3.47;;;17.50;68.20;;;;;;5009409;28;20463;-46
2022/09/05 02:27:46;;;;;;;6.38;3.40;;;17.50;68.00;;;;;;5025429;28;20144;-46
2022/09/05 02:30:41;;;;;;;7.53;3.65;;;17.40;68.10;;;;;;5002114;28;20061;-46
2022/09/05 02:33:28;;;;;;;7.03;3.60;;;17.40;68.40;;;;;;5006772;28;20030;-47
2022/09/05 02:36:08;;;;;;;4.93;3.40;;;17.40;68.30;;;;;;5025931;28;20057;-47
2022/09/05 02:38:45;;;;;;;7.38;3.33;;;17.40;68.20;;;;;;5010801;28;20120;-49
2022/09/05 02:41:31;;;;;;;5.18;3.50;;;17.40;68.10;;;;;;5006879;28;20033;-46
2022/09/05 02:44:31;;;;;;;6.40;3.85;;;17.30;68.30;;;;;;5017750;28;20030;-46
2022/09/05 02:47:41;;;;;;;5.25;2.88;;;17.30;68.50;;;;;;5005724;28;20034;-46
2022/09/05 02:50:24;;;;;;;;;;;17.30;68.40;;;;;;5001296;28;20038;-46
2022/09/05 02:52:52;;;;;;;4.78;3.38;;;17.30;68.40;;;;;;5009154;28;19940;-47
2022/09/05 02:55:30;;;;;;;5.32;3.25;;;17.30;68.70;;;;;;5005250;28;20428;-46
2022/09/05 02:58:22;;;;;;;5.57;3.65;;;17.30;68.60;;;;;;5015285;28;20041;-46
2022/09/05 03:01:14;;;;;;;5.93;3.33;;;17.20;68.50;;;;;;5009202;28;20084;-46
2022/09/05 03:04:05;;;;;;;4.85;3.35;;;17.20;68.40;;;;;;5024652;28;20079;-46
2022/09/05 03:06:32;;;;;;;6.82;3.47;;;17.10;68.00;;;;;;5025330;28;20113;-48
2022/09/05 03:09:18;;;;;;;6.15;4.32;;;17.20;68.50;;;;;;5009023;28;20026;-47
2022/09/05 03:12:08;;;;;;;6.22;4.45;;;17.20;68.30;;;;;;5008427;28;20055;-47
2022/09/05 03:14:52;;;;;;;5.28;3.55;;;17.20;68.20;;;;;;5012317;28;20037;-46
2022/09/05 03:17:36;;;;;;;6.20;3.42;;;17.10;68.20;;;;;;5014235;28;20456;-46
2022/09/05 03:20:20;;;;;;;5.13;3.33;;;17.10;68.20;;;;;;5023423;28;21761;-47
2022/09/05 03:23:11;;;;;;;5.25;3.25;;;17.10;68.30;;;;;;5028719;28;20405;-49
2022/09/05 03:25:54;;;;;;;4.97;3.63;;;17.10;68.50;;;;;;5011751;28;20040;-46
2022/09/05 03:28:22;;;;;;;4.95;3.63;;;17.00;68.50;;;;;;5011335;28;20109;-46
2022/09/05 03:31:26;;;;;;;5.85;3.10;;;17.10;68.40;;;;;;5019177;28;20040;-47
2022/09/05 03:34:21;;;;;;;5.28;3.50;;;17.00;68.50;;;;;;5019185;28;20052;-47
2022/09/05 03:37:07;;;;;;;5.70;3.33;;;17.00;68.70;;;;;;5012717;28;20034;-46
2022/09/05 03:39:47;;;;;;;5.75;3.45;;;17.00;68.50;;;;;;5009237;28;20037;-48
2022/09/05 03:42:13;;;;;;;6.53;4.15;;;17.00;68.80;;;;;;5008634;28;20355;-45
2022/09/05 03:44:48;;;;;;;4.45;3.42;;;17.00;68.60;;;;;;5008502;28;20049;-48
2022/09/05 03:47:32;;;;;;;4.28;3.30;;;17.00;68.60;;;;;;5025115;28;20026;-46
2022/09/05 03:50:03;;;;;;;5.93;3.65;;;17.00;68.50;;;;;;5016358;28;20029;-46
2022/09/05 03:53:02;;;;;;;6.18;3.35;;;17.00;68.50;;;;;;5022792;28;20026;-46
2022/09/05 03:55:46;;;;;;;5.30;3.65;;;17.00;68.60;;;;;;5023325;28;20029;-46
2022/09/05 03:58:50;;;;;;;5.88;3.65;;;16.90;68.60;;;;;;5008418;28;20041;-48
2022/09/05 04:01:24;;;;;;;5.38;3.05;;;16.90;68.80;;;;;;5009141;28;20101;-47
2022/09/05 04:04:32;;;;;;;5.13;3.67;;;16.90;69.10;;;;;;5018886;28;20325;-47
2022/09/05 04:07:25;;;;;;;5.70;3.33;;;17.00;69.00;;;;;;5027484;28;20049;-46
2022/09/05 04:10:03;;;;;;;6.55;3.75;;;17.00;68.90;;;;;;5015751;28;20080;-49
2022/09/05 04:12:45;;;;;;;5.60;3.30;;;17.00;69.10;;;;;;5023591;28;20018;-46
2022/09/05 04:15:32;;;;;;;5.40;3.67;;;16.90;69.00;;;;;;5010521;28;20037;-46
2022/09/05 04:18:21;;;;;;;5.85;3.15;;;16.90;68.90;;;;;;5012319;28;20056;-46
2022/09/05 04:21:00;;;;;;;4.25;3.33;;;16.90;68.90;;;;;;5025777;28;20035;-46
2022/09/05 04:23:53;;;;;;;5.57;3.70;;;17.00;69.10;;;;;;5022139;28;20344;-48
2022/09/05 04:26:30;;;;;;;5.10;3.75;;;16.90;69.10;;;;;;5010540;28;20045;-46
2022/09/05 04:29:21;;;;;;;6.70;3.38;;;16.90;69.20;;;;;;5010646;28;20057;-45
2022/09/05 04:32:17;;;;;;;4.40;3.22;;;16.90;69.10;;;;;;5011900;28;20037;-46
2022/09/05 04:34:56;;;;;;;4.88;3.53;;;16.90;69.30;;;;;;5012986;28;20036;-45
2022/09/05 04:38:01;;;;;;;7.57;4.27;;;16.90;69.50;;;;;;5021980;28;20037;-45
2022/09/05 04:40:36;;;;;;;6.22;3.78;;;16.90;69.50;;;;;;5011456;28;20038;-47
2022/09/05 04:43:09;;;;;;;6.50;3.75;;;16.90;69.70;;;;;;5011554;28;20030;-47
2022/09/05 04:45:54;;;;;;;5.40;3.65;;;16.90;69.40;;;;;;5023156;28;20061;-47
2022/09/05 04:48:37;;;;;;;6.07;3.83;;;16.90;69.40;;;;;;5016617;28;20026;-49
2022/09/05 04:51:09;;;;;;;4.80;3.40;;;16.90;69.60;;;;;;5017106;28;20336;-46
2022/09/05 04:54:07;;;;;;;5.45;3.60;;;16.90;69.30;;;;;;5014901;28;20504;-46
2022/09/05 04:56:38;;;;;;;4.78;3.15;;;16.90;69.00;;;;;;5021681;28;20033;-46
2022/09/05 04:59:13;;;;;;;9.50;3.13;;;16.90;69.10;;;;;;5026020;28;20458;-45
2022/09/05 05:01:51;;;;;;;5.30;3.70;;;16.90;68.80;;;;;;5011144;28;20478;-47
2022/09/05 05:04:21;;;;;;;4.32;3.05;;;16.90;69.00;;;;;;5011089;28;20095;-46
2022/09/05 05:07:09;;;;;;;6.80;3.85;;;16.90;69.30;;;;;;5030321;28;20071;-46
2022/09/05 05:09:44;;;;;;;5.25;3.45;;;17.00;69.20;;;;;;5027676;28;20026;-49
2022/09/05 05:12:37;;;;;;;7.97;3.75;;;17.00;68.90;;;;;;5030701;28;20483;-46
2022/09/05 05:15:10;;;;;;;4.85;3.35;;;17.00;68.80;;;;;;5013100;28;20589;-47
2022/09/05 05:17:52;;;;;;;7.90;3.50;;;17.00;69.10;;;;;;5030012;28;20029;-46
2022/09/05 05:20:28;;;;;;;5.22;3.67;;;17.00;69.40;;;;;;5018131;28;20017;-45
2022/09/05 05:23:05;;;;;;;5.50;3.70;;;17.10;69.20;;;;;;5016036;28;20489;-46
2022/09/05 05:25:41;;;;;;;5.13;3.58;;;17.10;69.10;;;;;;5010325;28;20037;-46
2022/09/05 05:28:14;;;;;;;7.00;3.65;;;17.10;69.30;;;;;;5027577;28;20044;-45
2022/09/05 05:30:40;;;;;;;5.07;3.70;;;17.10;69.50;;;;;;5011884;28;20978;-47
2022/09/05 05:33:28;;;;;;;4.38;3.50;;;17.10;69.40;;;;;;5010927;28;20026;-46
2022/09/05 05:35:57;;;;;;;5.22;3.42;;;17.10;69.50;;;;;;5026017;28;20096;-48
2022/09/05 05:38:47;;;;;;;4.93;3.13;;;17.10;69.80;;;;;;5010652;28;20076;-47
2022/09/05 05:41:30;;;;;;;6.20;3.60;;;17.10;69.80;;;;;;5010544;28;20080;-47
2022/09/05 05:43:57;;;;;;;4.97;2.97;;;17.20;69.70;;;;;;5011949;28;20036;-46
2022/09/05 05:46:36;;;;;;;6.10;3.97;;;17.20;69.80;;;;;;5025837;28;20037;-47
2022/09/05 05:49:53;;;;;;;5.80;3.38;;;17.10;69.70;;;;;;5012123;28;20485;-46
2022/09/05 05:52:37;;;;;;;6.60;3.80;;;17.20;69.70;;;;;;5008362;28;20655;-49
2022/09/05 05:55:31;;;;;;;5.15;3.53;;;17.20;69.70;;;;;;5028861;28;20025;-48
2022/09/05 05:58:44;;;;;;;6.85;3.35;;;17.30;69.30;;;;;;5029812;28;20171;-46
2022/09/05 06:01:35;;;;;;;9.75;3.97;;;17.30;69.20;;;;;;5017396;28;20042;-46
2022/09/05 06:04:04;;;;;;;5.43;3.35;;;17.30;69.20;;;;;;5019425;28;20088;-48
2022/09/05 06:07:00;;;;;;;6.47;3.65;;;17.40;69.10;;;;;;5021322;28;20108;-48
2022/09/05 06:09:35;;;;;;;6.68;3.42;;;17.40;69.00;;;;;;5025500;28;20458;-47
2022/09/05 06:12:51;;;;;;;9.13;3.78;;;17.40;69.10;;;;;;5010078;28;20032;-46
2022/09/05 06:15:40;;;;;;;5.65;3.72;;;17.40;68.90;;;;;;5019134;28;20131;-48
2022/09/05 06:18:17;;;;;;;6.22;3.60;;;17.40;69.00;;;;;;5015214;28;20026;-46
2022/09/05 06:21:37;;;;;;;6.38;3.85;;;17.40;69.00;;;;;;5009483;28;20030;-47
2022/09/05 06:24:40;;;;;;;7.90;3.70;;;17.40;69.00;;;;;;5022179;28;20495;-50
2022/09/05 06:27:05;;;;;;;8.27;4.28;;;17.40;69.30;;;;;;5022123;28;20052;-46
2022/09/05 06:29:59;;;;;;;5.70;3.60;;;17.40;69.40;;;;;;5013041;28;20335;-46
2022/09/05 06:32:42;;;;;;;5.03;3.47;;;17.50;69.50;;;;;;5015195;28;20101;-46
2022/09/05 06:35:24;;;;;;;7.68;4.05;;;17.50;69.10;;;;;;5022752;28;20076;-46
2022/09/05 06:38:02;;;;;;;6.85;3.95;;;17.60;68.60;;;;;;5016205;28;20037;-49
2022/09/05 06:40:38;;;;;;;4.95;3.33;;;17.70;68.90;;;;;;5009151;28;20042;-49
2022/09/05 06:43:08;;;;;;;5.50;3.33;;;17.80;68.50;;;;;;5013973;28;20102;-47
2022/09/05 06:45:36;;;;;;;6.15;3.45;;;17.90;68.40;;;;;;5031532;28;20481;-46
2022/09/05 06:48:33;;;;;;;6.05;3.70;;;17.90;68.20;;;;;;5034885;28;20457;-47
2022/09/05 06:51:18;;;;;;;5.72;3.67;;;17.90;68.40;;;;;;5036085;28;20025;-49
2022/09/05 06:54:04;;;;;;;7.22;4.70;;;18.00;67.90;;;;;;5029255;28;20108;-47
2022/09/05 06:56:52;;;;;;;6.18;3.80;;;18.10;68.00;;;;;;5036619;28;20052;-46
2022/09/05 06:59:41;;;;;;;11.80;4.13;;;18.10;68.10;;;;;;5024456;28;20471;-46
2022/09/05 07:02:18;;;;;;;8.45;4.22;;;18.20;67.70;;;;;;5040273;28;20470;-46
2022/09/05 07:05:04;;;;;;;12.23;3.92;;;18.40;67.10;;;;;;5024398;28;20088;-47
2022/09/05 07:07:57;;;;;;;5.88;4.50;;;18.40;67.20;;;;;;5018476;28;20109;-46
2022/09/05 07:10:28;;;;;;;8.45;4.57;;;18.50;67.00;;;;;;5024584;28;20048;-47
2022/09/05 07:13:22;;;;;;;5.20;3.70;;;18.60;66.80;;;;;;5017312;28;20033;-48
2022/09/05 07:15:58;;;;;;;4.78;3.53;;;18.60;66.20;;;;;;5022919;28;20038;-54
2022/09/05 07:18:58;;;;;;;7.40;4.82;;;18.70;66.20;;;;;;5027573;28;20036;-46
2022/09/05 07:21:45;;;;;;;8.95;4.22;;;18.70;65.80;;;;;;5012287;28;20116;-47
2022/09/05 07:24:17;;;;;;;5.97;3.95;;;18.90;65.70;;;;;;5023497;28;20113;-46
2022/09/05 07:26:46;;;;;;;4.72;3.60;;;18.90;65.70;;;;;;5009006;28;20043;-48
2022/09/05 07:29:17;;;;;;;5.40;3.42;;;19.00;65.10;;;;;;5015105;28;20054;-47
2022/09/05 07:31:47;;;;;;;6.18;3.67;;;19.10;65.40;;;;;;5014482;28;20037;-50
2022/09/05 07:34:29;;;;;;;6.03;3.38;;;19.20;65.20;;;;;;5025865;28;20100;-47
2022/09/05 07:36:57;;;;;;;6.05;3.50;;;19.30;65.60;;;;;;5037084;28;20025;-49
2022/09/05 07:39:28;;;;;;;9.27;3.65;;;19.30;65.40;;;;;;5037796;28;20034;-50
2022/09/05 07:42:03;;;;;;;6.20;3.92;;;19.60;64.80;;;;;;5031749;28;20120;-47
2022/09/05 07:44:32;;;;;;;6.78;4.05;;;19.90;64.40;;;;;;5022704;28;20830;-47
2022/09/05 07:47:09;;;;;;;;;;;20.00;63.70;;;;;;5027699;28;20040;-47
2022/09/05 07:49:37;;;;;;;5.07;3.10;;;20.30;62.40;;;;;;5029404;28;20273;-47
2022/09/05 07:52:15;;;;;;;4.88;3.33;;;20.60;61.10;;;;;;5015764;28;20026;-48
2022/09/05 07:54:44;;;;;;;5.78;3.72;;;20.90;59.90;;;;;;5014881;28;20032;-48
2022/09/05 07:57:21;;;;;;;7.75;4.50;;;20.90;59.60;;;;;;5032499;28;20037;-47
2022/09/05 07:59:51;;;;;;;7.20;3.65;;;21.20;59.90;;;;;;5016867;28;20033;-48
2022/09/05 08:02:16;;;;;;;5.47;3.65;;;21.40;58.80;;;;;;5013802;28;20052;-47
2022/09/05 08:04:42;;;;;;;6.63;3.55;;;21.60;58.20;;;;;;5019186;28;20068;-50
2022/09/05 08:07:11;;;;;;;9.80;4.43;;;21.70;58.10;;;;;;5020355;28;20040;-47
2022/09/05 08:09:48;;;;;;;5.22;3.67;;;21.90;57.80;;;;;;5022726;28;20022;-47
2022/09/05 08:12:18;;;;;;;6.63;3.85;;;22.20;57.30;;;;;;5018875;28;20025;-47
2022/09/05 08:15:02;;;;;;;6.93;3.67;;;22.50;56.70;;;;;;5021760;28;20088;-47
2022/09/05 08:17:28;;;;;;;4.57;3.33;;;22.40;56.70;;;;;;5022878;28;20111;-48
2022/09/05 08:20:12;;;;;;;7.22;3.97;;;22.70;56.10;;;;;;5011473;28;20112;-48
2022/09/05 08:22:55;;;;;;;7.47;4.35;;;22.90;55.50;;;;;;5011928;28;20041;-48
2022/09/05 08:25:32;;;;;;;6.70;4.07;;;22.90;55.70;;;;;;5023751;28;20080;-47
2022/09/05 08:28:10;;;;;;;4.65;3.78;;;23.20;55.40;;;;;;5021784;28;20062;-48
2022/09/05 08:30:44;;;;;;;6.75;4.25;;;23.10;56.10;;;;;;5019129;28;20049;-48
2022/09/05 08:33:21;;;;;;;6.05;4.05;;;23.30;55.50;;;;;;5019910;28;20037;-49
2022/09/05 08:35:54;;;;;;;6.10;4.28;;;23.30;55.50;;;;;;5016274;28;20529;-51
2022/09/05 08:38:21;;;;;;;5.88;3.17;;;23.40;55.10;;;;;;5022454;28;20037;-53
2022/09/05 08:40:54;;;;;;;7.03;4.07;;;23.40;55.20;;;;;;5026269;28;20041;-50
2022/09/05 08:43:31;;;;;;;5.93;4.15;;;23.40;54.70;;;;;;5012041;28;20116;-48
2022/09/05 08:46:28;;;;;;;5.88;3.92;;;23.40;54.50;;;;;;5019810;28;20089;-47
2022/09/05 08:49:06;;;;;;;7.47;4.25;;;23.50;54.50;;;;;;5020929;28;20045;-48
2022/09/05 08:51:39;;;;;;;6.30;3.72;;;23.70;54.80;;;;;;5010571;28;20029;-47
2022/09/05 08:54:17;;;;;;;5.20;3.83;;;23.80;54.40;;;;;;5026498;28;20037;-47
2022/09/05 08:57:01;;;;;;;6.43;3.90;;;24.10;54.90;;;;;;5021952;28;20582;-47
2022/09/05 08:59:48;;;;;;;9.63;4.22;;;24.00;53.60;;;;;;5016546;28;20146;-48
2022/09/05 09:02:17;;;;;;;9.88;4.18;;;24.30;53.80;;;;;;5016242;28;20061;-51
2022/09/05 09:05:06;;;;;;;5.97;4.20;;;24.50;52.90;;;;;;5029074;28;20444;-47
2022/09/05 09:07:32;;;;;;;;;;;24.30;52.80;;;;;;5013816;28;20026;-47
2022/09/05 09:10:09;;;;;;;6.35;3.60;;;24.20;52.30;;;;;;5016332;28;20385;-50
2022/09/05 09:12:54;;;;;;;7.20;3.88;;;24.40;52.60;;;;;;5010910;28;20037;-48
2022/09/05 09:15:34;;;;;;;9.15;4.15;;;24.50;53.40;;;;;;5012975;28;20033;-49
2022/09/05 09:18:12;;;;;;;6.80;3.53;;;24.80;52.90;;;;;;5010748;28;20037;-49
2022/09/05 09:21:24;;;;;;;4.38;3.30;;;24.70;53.10;;;;;;5023705;28;20033;-51
2022/09/05 09:24:13;;;;;;;7.28;4.63;;;24.90;51.90;;;;;;5017401;28;20033;-48
2022/09/05 09:27:04;;;;;;;;;;;24.90;52.00;;;;;;5023555;28;20030;-48
2022/09/05 09:29:35;;;;;;;6.35;4.07;;;24.90;52.20;;;;;;5011367;28;19927;-48
2022/09/05 09:32:12;;;;;;;7.38;4.25;;;25.00;51.90;;;;;;5033255;28;20021;-48
2022/09/05 09:34:57;;;;;;;6.88;5.20;;;24.90;51.70;;;;;;5027462;28;20515;-50
2022/09/05 09:37:41;;;;;;;9.75;3.90;;;24.90;51.80;;;;;;5029234;28;20434;-49
2022/09/05 09:40:16;;;;;;;5.63;4.20;;;25.10;52.80;;;;;;5033312;28;20110;-50
2022/09/05 09:42:53;;;;;;;6.38;4.40;;;25.30;52.30;;;;;;5045096;28;20025;-50
2022/09/05 09:46:03;;;;;;;4.70;3.83;;;25.20;51.30;;;;;;5021873;28;20077;-50
2022/09/05 09:49:17;;;;;;;7.13;3.42;;;25.30;52.30;;;;;;5010437;28;20112;-52
2022/09/05 09:51:43;;;;;;;7.97;3.60;;;25.40;53.10;;;;;;5023219;28;20036;-51
2022/09/05 09:54:43;;;;;;;8.63;3.88;;;25.60;52.40;;;;;;5012824;28;20351;-48
2022/09/05 09:57:29;;;;;;;7.70;4.75;;;25.80;52.20;;;;;;5014986;28;20034;-48
2022/09/05 10:00:20;;;;;;;8.30;4.20;;;25.90;50.40;;;;;;5021618;28;20026;-50
2022/09/05 10:03:18;;;;;;;4.85;3.78;;;25.70;51.20;;;;;;5028550;28;20084;-48
2022/09/05 10:06:05;;;;;;;5.97;4.05;;;25.60;50.70;;;;;;5009530;28;20415;-48
2022/09/05 10:08:33;;;;;;;6.38;4.25;;;25.70;51.70;;;;;;5009191;28;20132;-51
2022/09/05 10:11:02;;;;;;;6.93;3.40;;;25.70;50.80;;;;;;5014717;28;20051;-48
2022/09/05 10:14:07;;;;;;;5.45;3.40;;;25.40;51.50;;;;;;5020120;28;20036;-48
2022/09/05 10:17:12;;;;;;;7.68;4.30;;;25.30;53.40;;;;;;5013111;28;20061;-49
2022/09/05 10:19:51;;;;;;;9.07;3.67;;;25.60;53.20;;;;;;5007545;28;20037;-50
2022/09/05 10:22:49;;;;;;;5.03;3.75;;;25.70;52.50;;;;;;5015110;28;20034;-47
2022/09/05 10:25:27;;;;;;;8.98;4.07;;;25.60;52.40;;;;;;5012886;28;20395;-48
2022/09/05 10:28:28;;;;;;;6.05;4.03;;;25.40;52.00;;;;;;5024038;28;20026;-49
2022/09/05 10:31:41;;;;;;;7.18;4.10;;;25.50;52.10;;;;;;5016705;28;20079;-47
2022/09/05 10:34:15;;;;;;;7.30;4.05;;;25.70;51.00;;;;;;5020355;28;20038;-48
2022/09/05 10:36:53;;;;;;;6.95;3.65;;;25.80;51.70;;;;;;5009521;28;20052;-47
2022/09/05 10:39:25;;;;;;;5.38;4.32;;;25.90;51.10;;;;;;5012873;28;20070;-49
2022/09/05 10:41:58;;;;;;;9.20;4.60;;;26.10;52.10;;;;;;5009536;28;20252;-47
2022/09/05 10:44:31;;;;;;;9.13;3.80;;;26.10;50.30;;;;;;5009937;28;20664;-48
2022/09/05 10:47:12;;;;;;;5.70;3.88;;;26.20;50.30;;;;;;5013444;28;20053;-49
2022/09/05 10:49:44;;;;;;;4.53;3.65;;;26.10;50.70;;;;;;5013097;28;20418;-50
2022/09/05 10:52:11;;;;;;;5.75;3.85;;;26.10;51.40;;;;;;5009616;28;20439;-47
2022/09/05 10:55:18;;;;;;;10.02;4.38;;;26.40;50.80;;;;;;5009053;28;20030;-52
2022/09/05 10:58:02;;;;;;;6.70;3.28;;;26.40;50.00;;;;;;5023765;28;20104;-47
2022/09/05 11:00:50;;;;;;;8.00;3.90;;;26.30;49.60;;;;;;5021023;28;20044;-48
2022/09/05 11:03:28;;;;;;;5.75;3.83;;;26.40;50.20;;;;;;5013818;28;20018;-47
2022/09/05 11:06:04;;;;;;;5.45;3.50;;;26.60;51.20;;;;;;5028351;28;20409;-48
2022/09/05 11:08:52;;;;;;;7.20;3.78;;;26.80;49.10;;;;;;5026979;28;20105;-51
2022/09/05 11:11:23;;;;;;;8.30;3.85;;;26.60;48.80;;;;;;5027648;28;20435;-48
2022/09/05 11:13:53;;;;;;;5.55;3.75;;;26.70;49.30;;;;;;5026761;28;20040;-48
2022/09/05 11:16:41;;;;;;;8.77;4.28;;;26.60;49.30;;;;;;5016227;28;20044;-48
2022/09/05 11:19:19;;;;;;;8.18;4.15;;;26.40;50.20;;;;;;5021516;28;20481;-48
2022/09/05 11:21:53;;;;;;;8.63;3.92;;;26.20;50.90;;;;;;5014608;28;20038;-47
2022/09/05 11:24:32;;;;;;;7.40;3.78;;;26.30;50.70;;;;;;5012818;28;20044;-48
2022/09/05 11:27:01;;;;;;;5.15;4.18;;;26.20;50.50;;;;;;5011993;28;20033;-48
2022/09/05 11:29:38;;;;;;;8.15;4.63;;;26.30;50.90;;;;;;5019276;28;20076;-47
2022/09/05 11:32:19;;;;;;;11.20;4.30;;;26.40;49.90;;;;;;5018144;28;20056;-49
2022/09/05 11:35:15;;;;;;;7.78;4.07;;;26.40;50.90;;;;;;5021477;28;20080;-47
2022/09/05 11:38:09;;;;;;;4.30;3.47;;;26.50;50.70;;;;;;5032544;28;20032;-48
2022/09/05 11:40:37;;;;;;;7.68;3.67;;;26.50;50.80;;;;;;5023437;28;20076;-50
2022/09/05 11:43:23;;;;;;;5.30;4.30;;;26.60;50.00;;;;;;5012146;28;20092;-48
2022/09/05 11:46:17;;;;;;;4.95;3.47;;;26.80;50.70;;;;;;5018022;28;20049;-48
2022/09/05 11:49:00;;;;;;;6.88;3.95;;;26.80;50.40;;;;;;5024703;28;20119;-47
2022/09/05 11:52:14;;;;;;;8.55;4.30;;;26.80;49.90;;;;;;5027004;28;20423;-47
2022/09/05 11:54:58;;;;;;;8.52;3.63;;;26.80;51.60;;;;;;5029891;28;20050;-48
2022/09/05 11:57:58;;;;;;;7.53;4.22;;;26.80;50.00;;;;;;5025197;28;20025;-47
2022/09/05 12:00:42;;;;;;;;;;;26.70;50.20;;;;;;5013511;28;20423;-48
2022/09/05 12:03:26;;;;;;;8.63;3.60;;;26.80;50.20;;;;;;5013815;28;19948;-47
2022/09/05 12:06:16;;;;;;;9.20;4.25;;;26.90;49.70;;;;;;5022639;28;20433;-48
2022/09/05 12:09:23;;;;;;;6.28;3.53;;;26.90;50.00;;;;;;5014642;28;20036;-47
2022/09/05 12:12:05;;;;;;;4.53;3.80;;;26.90;48.90;;;;;;5013384;28;20029;-47
2022/09/05 12:14:39;;;;;;;4.22;3.22;;;26.90;50.20;;;;;;5020407;28;20022;-48
2022/09/05 12:17:23;;;;;;;7.07;3.60;;;26.70;49.50;;;;;;5025006;28;20033;-47
2022/09/05 12:20:15;;;;;;;6.10;4.07;;;26.60;50.30;;;;;;5021648;28;20036;-49
2022/09/05 12:22:54;;;;;;;7.00;3.75;;;26.40;50.30;;;;;;5027750;28;20120;-47
2022/09/05 12:25:32;;;;;;;5.10;3.90;;;26.50;50.60;;;;;;5011063;28;20042;-50
2022/09/05 12:28:06;;;;;;;6.32;3.60;;;26.50;50.00;;;;;;5031202;28;20435;-48
2022/09/05 12:30:38;;;;;;;8.30;3.92;;;26.60;51.20;;;;;;5024633;28;20128;-49
2022/09/05 12:33:12;;;;;;;6.00;4.00;;;26.70;50.10;;;;;;5012850;28;20022;-47
2022/09/05 12:35:50;;;;;;;10.63;4.20;;;26.90;49.40;;;;;;5021521;28;20022;-47
2022/09/05 12:38:37;;;;;;;4.75;3.30;;;26.90;50.20;;;;;;5012356;28;20034;-47
2022/09/05 12:41:05;;;;;;;6.43;3.95;;;27.00;50.30;;;;;;5031079;28;20035;-48
2022/09/05 12:43:33;;;;;;;7.20;3.38;;;27.10;51.90;;;;;;5012187;28;20030;-49
2022/09/05 12:46:14;;;;;;;6.85;4.00;;;27.20;52.20;;;;;;5021195;28;20103;-48
2022/09/05 12:49:03;;;;;;;5.32;3.03;;;27.20;48.80;;;;;;5025242;28;20975;-48
2022/09/05 12:51:32;;;;;;;;;;;27.20;49.50;;;;;;5027684;28;20045;-47
2022/09/05 12:54:09;;;;;;;5.18;3.90;;;27.00;48.80;;;;;;5011944;28;19958;-47
2022/09/05 12:56:46;;;;;;;8.23;3.88;;;26.90;49.10;;;;;;5013609;28;20331;-48
2022/09/05 12:59:21;;;;;;;7.18;3.45;;;26.90;49.00;;;;;;5016271;28;20083;-47
2022/09/05 13:02:02;;;;;;;5.90;3.42;;;26.90;49.40;;;;;;5020328;28;20034;-51
2022/09/05 13:04:39;;;;;;;5.97;4.07;;;26.90;51.00;;;;;;5014222;28;20034;-51
2022/09/05 13:07:32;;;;;;;5.35;4.00;;;26.90;51.00;;;;;;5014098;28;20061;-52
2022/09/05 13:10:17;;;;;;;5.57;3.40;;;27.00;50.10;;;;;;5022379;28;20041;-47
2022/09/05 13:13:06;;;;;;;8.50;4.22;;;27.10;49.80;;;;;;5026912;28;20491;-48
2022/09/05 13:15:37;;;;;;;6.60;3.40;;;27.10;50.50;;;;;;5019171;28;20491;-47
2022/09/05 13:18:21;;;;;;;6.10;3.95;;;27.20;51.60;;;;;;5014479;28;20090;-50
2022/09/05 13:21:07;;;;;;;6.68;4.22;;;27.00;50.20;;;;;;5026047;28;20443;-47
2022/09/05 13:24:13;;;;;;;6.68;3.97;;;26.90;50.20;;;;;;5022601;28;20030;-48
2022/09/05 13:26:55;;;;;;;7.32;3.88;;;26.80;51.30;;;;;;5028319;28;20033;-48
2022/09/05 13:29:27;;;;;;;6.38;3.03;;;26.80;51.50;;;;;;5016962;28;20203;-51
2022/09/05 13:32:03;;;;;;;7.13;3.80;;;26.90;50.10;;;;;;5025259;28;20053;-47
2022/09/05 13:34:45;;;;;;;5.32;3.40;;;27.00;51.60;;;;;;5023660;28;20030;-47
2022/09/05 13:37:15;;;;;;;7.38;4.22;;;27.00;51.00;;;;;;5012641;28;20041;-48
2022/09/05 13:39:40;;;;;;;6.03;4.55;;;26.90;50.80;;;;;;5018804;28;20454;-47
2022/09/05 13:42:11;;;;;;;7.63;3.72;;;27.00;50.40;;;;;;5034353;28;20033;-47
2022/09/05 13:45:18;;;;;;;7.97;4.45;;;27.00;50.70;;;;;;5023340;28;20041;-51
2022/09/05 13:48:03;;;;;;;5.53;3.88;;;27.00;50.10;;;;;;5032617;28;20482;-47
2022/09/05 13:50:53;;;;;;;8.00;4.28;;;27.00;52.00;;;;;;5032449;28;20040;-48
2022/09/05 13:53:54;;;;;;;7.10;4.43;;;26.90;51.00;;;;;;5039606;28;20442;-47
2022/09/05 13:56:29;;;;;;;6.25;3.58;;;26.90;50.10;;;;;;5036713;28;20116;-47
2022/09/05 13:59:15;;;;;;;5.18;4.03;;;26.80;50.60;;;;;;5029701;28;20029;-47
2022/09/05 14:02:18;;;;;;;5.43;3.78;;;26.70;51.10;;;;;;5035895;28;20060;-49
2022/09/05 14:05:06;;;;;;;6.00;4.30;;;26.50;52.30;;;;;;5038741;28;20117;-48
2022/09/05 14:07:33;;;;;;;4.30;3.70;;;26.40;54.20;;;;;;5034361;28;20037;-47
2022/09/05 14:10:27;;;;;;;5.47;4.03;;;26.30;54.20;;;;;;5031854;28;20024;-48
2022/09/05 14:13:23;;;;;;;8.60;4.38;;;26.20;55.20;;;;;;5020656;28;20421;-48